Time;durP1;ratioP1;P1;durP2;ratioP2;P2;SDS_P1;SDS_P2;PMS_P1;PMS_P2;Temp;Humidity;BMP_temperature;BMP_pressure;BME280_temperature;BME280_humidity;BME280_pressure;Samples;Min_cycle;Max_cycle;Signal;HPM_P1;HPM_P2
2022/12/22 03:26:43;;;;;;;6.72;1.85;;;;;;;;;;5056255;28;20439;-30
2022/12/22 03:29:09;;;;;;;6.50;2.63;;;;;;;;;;5056342;28;20044;-31
2022/12/22 03:31:36;;;;;;;5.70;2.22;;;;;;;;;;5056358;28;20113;-30
2022/12/22 03:34:02;;;;;;;6.88;2.45;;;;;;;;;;5056015;28;20033;-30
2022/12/22 03:36:28;;;;;;;7.68;2.60;;;;;;;;;;5056258;28;20045;-30
2022/12/22 03:38:54;;;;;;;5.07;2.38;;;;;;;;;;5055060;28;20378;-29
2022/12/22 03:46:49;;;;;;;9.15;2.50;;;;;;;;;;5055873;28;20430;-29
2022/12/22 03:49:18;;;;;;;7.68;2.80;;;;;;;;;;5054970;28;20354;-29
2022/12/22 03:51:45;;;;;;;7.85;2.40;;;;;;;;;;5055653;28;20024;-30
2022/12/22 03:54:16;;;;;;;6.30;2.40;;;;;;;;;;5055977;28;20364;-30
2022/12/22 03:56:42;;;;;;;7.10;2.45;;;;;;;;;;5055664;28;20056;-30
2022/12/22 03:59:08;;;;;;;7.93;3.72;;;;;;;;;;5055589;28;20150;-30
2022/12/22 04:01:37;;;;;;;9.35;2.40;;;;;;;;;;5055761;28;20025;-30
2022/12/22 04:04:03;;;;;;;4.35;1.90;;;;;;;;;;5055362;28;20084;-29
2022/12/22 04:06:29;;;;;;;8.48;2.70;;;;;;;;;;5055412;28;20070;-30
2022/12/22 04:08:55;;;;;;;7.07;2.92;;;;;;;;;;5055268;28;20025;-30
2022/12/22 04:14:06;;;;;;;6.35;1.95;;;;;;;;;;5055535;28;20047;-31
2022/12/22 04:16:33;;;;;;;6.35;2.10;;;;;;;;;;5055763;28;20032;-31
2022/12/22 04:18:59;;;;;;;7.60;2.50;;;;;;;;;;5055166;28;20029;-30
2022/12/22 04:21:25;;;;;;;11.63;2.22;;;;;;;;;;5055384;28;20098;-29
2022/12/22 04:23:51;;;;;;;6.03;2.30;;;;;;;;;;5055296;28;20135;-30
2022/12/22 04:26:22;;;;;;;7.82;2.28;;;;;;;;;;5054980;28;20037;-30
2022/12/22 04:28:48;;;;;;;2.40;1.63;;;;;;;;;;5054988;28;20059;-30
2022/12/22 04:31:14;;;;;;;6.07;2.05;;;;;;;;;;5055256;28;20033;-30
2022/12/22 04:33:40;;;;;;;6.70;2.08;;;;;;;;;;5054857;28;20349;-30
2022/12/22 04:36:07;;;;;;;11.65;2.78;;;;;;;;;;5055134;28;20108;-30
2022/12/22 04:38:33;;;;;;;8.05;2.38;;;;;;;;;;5054802;28;20107;-30
2022/12/22 04:40:59;;;;;;;5.22;2.10;;;;;;;;;;5054775;28;20401;-30
2022/12/22 04:43:25;;;;;;;5.88;2.17;;;;;;;;;;5054978;28;20345;-31
2022/12/22 04:45:53;;;;;;;4.13;1.83;;;;;;;;;;5054986;28;20459;-30
2022/12/22 04:48:19;;;;;;;6.93;2.60;;;;;;;;;;5054607;28;20364;-30
2022/12/22 04:50:46;;;;;;;5.68;2.53;;;;;;;;;;5054648;28;20368;-30
2022/12/22 04:53:12;;;;;;;6.93;2.10;;;;;;;;;;5054776;28;20544;-30
2022/12/22 04:55:38;;;;;;;4.75;2.40;;;;;;;;;;5053538;28;20037;-30
2022/12/22 04:58:04;;;;;;;9.18;2.13;;;;;;;;;;5054961;28;20037;-30
2022/12/22 05:00:30;;;;;;;12.25;2.97;;;;;;;;;;5054869;28;20483;-32
2022/12/22 05:02:56;;;;;;;6.72;2.05;;;;;;;;;;5054397;28;20029;-31
2022/12/22 05:05:23;;;;;;;6.07;1.92;;;;;;;;;;5054412;28;20044;-30
2022/12/22 05:07:49;;;;;;;6.78;2.00;;;;;;;;;;5054332;28;20029;-31
2022/12/22 05:10:15;;;;;;;4.00;2.42;;;;;;;;;;5054454;28;20017;-31
2022/12/22 05:12:53;;;;;;;10.15;2.22;;;;;;;;;;5054861;28;20021;-30
2022/12/22 05:15:19;;;;;;;7.18;2.35;;;;;;;;;;5054598;28;20029;-30
2022/12/22 05:17:45;;;;;;;2.80;1.63;;;;;;;;;;5054233;28;20108;-30
2022/12/22 05:20:12;;;;;;;3.22;2.22;;;;;;;;;;5054340;28;20036;-31
2022/12/22 05:22:38;;;;;;;4.55;1.67;;;;;;;;;;5053271;28;20111;-31
2022/12/22 05:25:04;;;;;;;3.60;1.95;;;;;;;;;;5054519;28;20371;-30
2022/12/22 05:27:31;;;;;;;4.93;2.58;;;;;;;;;;5054381;28;20036;-31
2022/12/22 05:29:57;;;;;;;5.50;2.50;;;;;;;;;;5054073;28;20071;-31
2022/12/22 05:32:23;;;;;;;5.55;2.10;;;;;;;;;;5054124;28;20021;-31
2022/12/22 05:34:49;;;;;;;6.78;2.95;;;;;;;;;;5053096;28;20036;-32
2022/12/22 05:37:15;;;;;;;7.57;2.17;;;;;;;;;;5054034;28;20043;-32
2022/12/22 05:39:41;;;;;;;10.63;2.30;;;;;;;;;;5054018;28;20036;-32
2022/12/22 05:42:07;;;;;;;7.18;2.47;;;;;;;;;;5053940;28;20089;-31
2022/12/22 05:44:34;;;;;;;5.25;2.38;;;;;;;;;;5054411;28;20041;-30
2022/12/22 05:47:00;;;;;;;8.60;2.13;;;;;;;;;;5053954;28;20033;-31
2022/12/22 05:49:26;;;;;;;6.90;2.25;;;;;;;;;;5053928;28;20013;-30
2022/12/22 05:51:53;;;;;;;14.00;2.40;;;;;;;;;;5053806;28;20493;-30
2022/12/22 05:54:19;;;;;;;9.85;3.28;;;;;;;;;;5054264;28;20051;-31
2022/12/22 05:56:45;;;;;;;4.90;2.25;;;;;;;;;;5053896;28;20036;-31
2022/12/22 05:59:11;;;;;;;8.18;2.97;;;;;;;;;;5054190;28;20025;-30
2022/12/22 06:04:20;;;;;;;4.90;1.83;;;;;;;;;;4921566;26;20107;-26
2022/12/22 06:06:46;;;;;;;7.47;2.67;;;;;;;;;;5053781;28;20061;-24
2022/12/22 06:09:12;;;;;;;3.58;2.10;;;;;;;;;;5053712;28;20448;-24
2022/12/22 06:11:38;;;;;;;7.78;2.15;;;;;;;;;;5054232;28;20037;-24
2022/12/22 06:14:04;;;;;;;6.07;2.17;;;;;;;;;;5037865;28;20083;-25
2022/12/22 06:16:31;;;;;;;7.22;2.20;;;;;;;;;;5038072;28;20017;-24
2022/12/22 06:18:57;;;;;;;7.95;2.13;;;;;;;;;;5037534;28;20029;-24
2022/12/22 06:21:23;;;;;;;7.80;3.35;;;;;;;;;;5037400;28;20083;-24
2022/12/22 06:23:49;;;;;;;6.72;2.40;;;;;;;;;;5037255;28;20021;-25
2022/12/22 06:26:15;;;;;;;9.00;2.65;;;;;;;;;;5037285;28;20037;-24
2022/12/22 06:28:41;;;;;;;7.07;2.35;;;;;;;;;;5037347;28;20056;-24
2022/12/22 06:31:08;;;;;;;4.47;1.40;;;;;;;;;;5037301;28;20025;-25
2022/12/22 06:33:34;;;;;;;7.18;2.75;;;;;;;;;;5037101;28;20449;-25
2022/12/22 06:36:04;;;;;;;8.77;2.17;;;;;;;;;;5052797;28;20108;-25
2022/12/22 06:38:30;;;;;;;6.53;2.10;;;;;;;;;;5037630;28;20029;-25
2022/12/22 06:40:56;;;;;;;6.40;2.70;;;;;;;;;;5037050;28;20107;-25
2022/12/22 06:43:22;;;;;;;5.63;1.80;;;;;;;;;;5037138;28;20348;-25
2022/12/22 06:45:49;;;;;;;5.95;2.25;;;;;;;;;;5037305;28;20109;-25
2022/12/22 06:48:15;;;;;;;15.68;3.58;;;;;;;;;;5036817;28;20033;-25
2022/12/22 06:50:41;;;;;;;7.00;2.13;;;;;;;;;;5036818;28;20032;-24
2022/12/22 06:53:08;;;;;;;9.23;2.00;;;;;;;;;;5036941;28;20028;-25
2022/12/22 06:55:34;;;;;;;3.53;2.30;;;;;;;;;;5036651;28;20128;-25
2022/12/22 06:58:00;;;;;;;7.28;1.73;;;;;;;;;;5036904;28;20325;-25
2022/12/22 07:00:27;;;;;;;9.45;2.72;;;;;;;;;;5036846;28;20363;-25
2022/12/22 07:02:53;;;;;;;8.23;2.22;;;;;;;;;;5036337;28;20460;-25
2022/12/22 07:05:19;;;;;;;5.60;2.13;;;;;;;;;;5036889;28;20098;-25
2022/12/22 07:07:45;;;;;;;8.40;2.00;;;;;;;;;;5036486;28;20033;-25
2022/12/22 07:10:11;;;;;;;6.13;2.67;;;;;;;;;;5036516;28;20028;-25
2022/12/22 07:12:38;;;;;;;9.63;2.03;;;;;;;;;;5036429;28;20126;-25
2022/12/22 07:15:04;;;;;;;5.63;2.25;;;;;;;;;;5036547;28;20420;-25
2022/12/22 07:17:31;;;;;;;6.75;2.28;;;;;;;;;;5036376;28;20033;-25
2022/12/22 07:19:57;;;;;;;8.27;1.90;;;;;;;;;;5036348;28;20520;-25
2022/12/22 07:22:23;;;;;;;11.05;3.65;;;;;;;;;;5035529;28;20033;-25
2022/12/22 07:24:50;;;;;;;5.20;1.98;;;;;;;;;;5051515;28;20419;-25
2022/12/22 07:27:16;;;;;;;8.20;1.98;;;;;;;;;;5036522;28;20052;-25
2022/12/22 07:29:43;;;;;;;5.93;1.73;;;;;;;;;;5036376;28;20041;-25
2022/12/22 07:32:09;;;;;;;8.38;2.10;;;;;;;;;;5036033;28;20025;-25
2022/12/22 07:34:35;;;;;;;11.77;2.65;;;;;;;;;;5036660;28;20022;-25
2022/12/22 07:37:01;;;;;;;5.32;1.90;;;;;;;;;;5036281;28;20479;-25
2022/12/22 07:39:27;;;;;;;8.77;1.77;;;;;;;;;;5035856;28;20487;-24
2022/12/22 07:44:38;;;;;;;8.05;3.28;;;;;;;;;;5036140;28;20043;-24
2022/12/22 07:47:05;;;;;;;10.15;2.40;;;;;;;;;;5036021;28;20029;-24
2022/12/22 07:52:15;;;;;;;8.63;2.67;;;;;;;;;;5035424;28;20087;-24
2022/12/22 07:54:41;;;;;;;10.02;2.42;;;;;;;;;;5035519;28;20041;-24
2022/12/22 07:57:08;;;;;;;6.45;2.00;;;;;;;;;;5035545;28;20031;-24
2022/12/22 07:59:34;;;;;;;11.73;2.10;;;;;;;;;;5035462;28;20025;-24
2022/12/22 08:02:00;;;;;;;8.90;2.15;;;;;;;;;;5035514;28;20309;-25
2022/12/22 08:04:26;;;;;;;8.70;2.33;;;;;;;;;;5035460;28;20315;-24
2022/12/22 08:06:52;;;;;;;22.17;2.75;;;;;;;;;;5035360;28;20036;-25
2022/12/22 08:09:20;;;;;;;9.35;2.30;;;;;;;;;;5035548;28;20025;-25
2022/12/22 08:11:48;;;;;;;9.85;2.78;;;;;;;;;;5035468;28;20417;-24
2022/12/22 08:14:14;;;;;;;8.27;2.42;;;;;;;;;;5035324;28;20098;-25
2022/12/22 08:16:41;;;;;;;4.97;1.70;;;;;;;;;;5035208;28;20099;-24
2022/12/22 08:19:07;;;;;;;6.03;1.90;;;;;;;;;;5035036;28;20041;-24
2022/12/22 08:21:33;;;;;;;7.90;2.53;;;;;;;;;;5034088;28;20045;-24
2022/12/22 08:24:00;;;;;;;9.38;1.90;;;;;;;;;;5035174;28;20025;-25
2022/12/22 08:26:30;;;;;;;7.43;1.80;;;;;;;;;;5034879;28;20037;-24
2022/12/22 08:29:02;;;;;;;7.28;2.13;;;;;;;;;;5035326;28;20100;-24
2022/12/22 08:31:28;;;;;;;8.27;1.80;;;;;;;;;;5035325;28;20025;-24
2022/12/22 08:33:56;;;;;;;10.88;2.10;;;;;;;;;;5034724;28;20045;-24
2022/12/22 08:36:22;;;;;;;5.28;2.22;;;;;;;;;;5034748;28;20037;-24
2022/12/22 08:38:48;;;;;;;14.52;2.78;;;;;;;;;;5034691;28;20040;-24
2022/12/22 08:41:48;;;;;;;13.05;2.85;;;;;;;;;;5035011;28;20030;-25
2022/12/22 08:44:02;;;;;;;9.25;2.13;;;;;;;;;;5035036;28;20129;-24
2022/12/22 08:46:28;;;;;;;7.70;2.55;;;;;;;;;;5034578;28;20116;-25
2022/12/22 08:48:54;;;;;;;5.68;2.03;;;;;;;;;;5034768;28;20101;-24
2022/12/22 08:51:20;;;;;;;10.73;3.70;;;;;;;;;;5034590;28;20022;-25
2022/12/22 08:53:46;;;;;;;11.55;2.45;;;;;;;;;;5034517;28;20471;-24
2022/12/22 08:56:14;;;;;;;6.90;2.50;;;;;;;;;;5034530;28;20030;-24
2022/12/22 08:58:40;;;;;;;7.22;2.35;;;;;;;;;;5034513;28;20105;-25
2022/12/22 09:01:06;;;;;;;12.27;2.38;;;;;;;;;;5034537;28;20060;-25
2022/12/22 09:03:32;;;;;;;13.68;2.83;;;;;;;;;;5034256;28;20049;-25
2022/12/22 09:06:02;;;;;;;7.32;2.10;;;;;;;;;;5034578;28;20028;-25
2022/12/22 09:08:28;;;;;;;11.35;2.85;;;;;;;;;;5034743;28;20043;-25
2022/12/22 09:10:54;;;;;;;15.43;3.55;;;;;;;;;;5034487;28;20352;-25
2022/12/22 09:13:20;;;;;;;9.52;3.13;;;;;;;;;;5034398;28;20359;-25
2022/12/22 09:15:46;;;;;;;8.68;2.50;;;;;;;;;;5034348;28;20029;-25
2022/12/22 09:18:13;;;;;;;12.65;3.50;;;;;;;;;;5034577;28;20332;-25
2022/12/22 09:20:39;;;;;;;10.48;2.95;;;;;;;;;;5049736;28;20113;-25
2022/12/22 09:23:05;;;;;;;15.18;3.47;;;;;;;;;;5034316;28;20065;-25
2022/12/22 09:25:33;;;;;;;12.35;3.10;;;;;;;;;;5034037;28;20044;-25
2022/12/22 09:28:00;;;;;;;8.20;2.88;;;;;;;;;;5035172;28;20030;-25
2022/12/22 09:30:26;;;;;;;11.35;3.05;;;;;;;;;;5034763;28;20053;-25
2022/12/22 09:32:54;;;;;;;14.63;3.05;;;;;;;;;;5034275;28;20045;-25
2022/12/22 09:35:20;;;;;;;12.45;2.90;;;;;;;;;;5034502;28;20348;-25
2022/12/22 09:37:46;;;;;;;20.23;3.53;;;;;;;;;;5034243;28;20064;-25
2022/12/22 09:40:12;;;;;;;16.95;3.53;;;;;;;;;;5034217;28;20460;-25
2022/12/22 09:42:39;;;;;;;10.30;2.65;;;;;;;;;;5034558;28;20104;-25
2022/12/22 09:45:05;;;;;;;9.30;2.70;;;;;;;;;;5034513;28;20025;-25
2022/12/22 09:47:36;;;;;;;8.30;2.55;;;;;;;;;;5037049;28;20471;-25
2022/12/22 09:50:02;;;;;;;16.33;2.78;;;;;;;;;;5053884;28;20049;-25
2022/12/22 09:52:29;;;;;;;14.68;4.00;;;;;;;;;;5037993;28;20504;-25
2022/12/22 09:54:55;;;;;;;21.10;3.70;;;;;;;;;;5038045;28;20026;-25
2022/12/22 09:57:23;;;;;;;13.55;3.47;;;;;;;;;;5037941;28;20432;-25
2022/12/22 09:59:57;;;;;;;19.95;3.53;;;;;;;;;;5053559;28;20367;-25
2022/12/22 10:02:48;;;;;;;12.07;3.25;;;;;;;;;;5037598;28;20049;-25
2022/12/22 10:05:26;;;;;;;10.60;2.63;;;;;;;;;;5038008;28;20017;-25
2022/12/22 10:07:53;;;;;;;13.98;2.80;;;;;;;;;;5037931;28;20066;-25
2022/12/22 10:10:26;;;;;;;11.80;2.83;;;;;;;;;;5037723;28;20030;-27
2022/12/22 10:13:01;;;;;;;19.33;2.92;;;;;;;;;;5037604;28;20026;-25
2022/12/22 10:15:34;;;;;;;7.25;2.67;;;;;;;;;;5038198;28;20105;-25
2022/12/22 10:18:17;;;;;;;11.38;3.20;;;;;;;;;;5037850;28;20022;-26
2022/12/22 10:21:03;;;;;;;8.65;2.70;;;;;;;;;;5037441;28;20072;-25
2022/12/22 10:23:30;;;;;;;21.25;3.78;;;;;;;;;;5037245;28;20044;-25
2022/12/22 10:25:56;;;;;;;17.10;3.17;;;;;;;;;;5037470;28;20053;-25
2022/12/22 10:28:24;;;;;;;14.02;3.42;;;;;;;;;;5037634;28;20475;-25
2022/12/22 10:31:08;;;;;;;16.10;3.17;;;;;;;;;;5037102;28;20029;-25
2022/12/22 10:33:34;;;;;;;15.23;3.60;;;;;;;;;;5037227;28;20025;-25
2022/12/22 10:36:00;;;;;;;14.73;3.95;;;;;;;;;;5037074;28;20037;-25
2022/12/22 10:38:28;;;;;;;13.95;1.90;;;;;;;;;;5036978;28;20448;-25
2022/12/22 10:41:03;;;;;;;10.18;2.72;;;;;;;;;;5037251;28;20372;-25
2022/12/22 10:43:29;;;;;;;8.82;2.38;;;;;;;;;;5036940;28;20104;-25
2022/12/22 10:45:56;;;;;;;10.05;2.55;;;;;;;;;;5037146;28;20379;-25
2022/12/22 10:48:27;;;;;;;13.15;4.38;;;;;;;;;;5036994;28;20033;-25
2022/12/22 10:50:53;;;;;;;6.97;2.80;;;;;;;;;;5037226;28;20022;-26
2022/12/22 10:53:20;;;;;;;10.75;2.40;;;;;;;;;;5052411;28;20025;-26
2022/12/22 10:55:47;;;;;;;14.88;3.17;;;;;;;;;;5036007;28;20491;-26
2022/12/22 10:58:13;;;;;;;19.55;2.67;;;;;;;;;;5036682;28;20025;-26
2022/12/22 11:00:40;;;;;;;16.98;4.32;;;;;;;;;;5036622;28;20033;-26
2022/12/22 11:03:10;;;;;;;11.35;2.97;;;;;;;;;;5036488;28;20084;-26
2022/12/22 11:05:37;;;;;;;12.90;2.70;;;;;;;;;;5036928;28;20055;-26
2022/12/22 11:08:19;;;;;;;8.63;2.22;;;;;;;;;;5036472;28;20033;-26
2022/12/22 11:11:02;;;;;;;12.95;2.85;;;;;;;;;;5036822;28;20036;-26
2022/12/22 11:13:40;;;;;;;6.22;2.80;;;;;;;;;;5036788;28;20045;-26
2022/12/22 11:16:15;;;;;;;6.38;2.50;;;;;;;;;;5036937;28;20106;-26
2022/12/22 11:18:48;;;;;;;9.65;2.30;;;;;;;;;;5036610;28;20033;-26
2022/12/22 11:21:26;;;;;;;10.77;3.33;;;;;;;;;;5036700;28;20108;-25
2022/12/22 11:24:04;;;;;;;10.13;3.05;;;;;;;;;;5036243;28;20443;-25
2022/12/22 11:26:39;;;;;;;14.52;3.08;;;;;;;;;;5036404;28;20142;-25
2022/12/22 11:29:05;;;;;;;9.10;2.63;;;;;;;;;;5036106;28;20026;-25
2022/12/22 11:32:04;;;;;;;9.70;3.75;;;;;;;;;;5051671;28;20112;-25
2022/12/22 11:34:48;;;;;;;9.77;4.03;;;;;;;;;;5013981;28;20041;-25
2022/12/22 11:37:20;;;;;;;12.68;4.70;;;;;;;;;;5036021;28;20034;-25
2022/12/22 11:39:52;;;;;;;13.95;2.83;;;;;;;;;;5035963;28;20037;-25
2022/12/22 11:42:37;;;;;;;10.88;2.83;;;;;;;;;;5035991;28;20033;-25
2022/12/22 11:45:22;;;;;;;6.82;2.78;;;;;;;;;;5051452;28;20086;-25
2022/12/22 11:47:54;;;;;;;16.33;2.95;;;;;;;;;;5035593;28;20116;-24
2022/12/22 11:50:29;;;;;;;13.23;2.78;;;;;;;;;;5035691;28;20049;-24
2022/12/22 11:53:02;;;;;;;12.63;2.65;;;;;;;;;;5035522;28;20095;-24
2022/12/22 11:55:40;;;;;;;11.95;3.65;;;;;;;;;;5035741;28;20044;-25
2022/12/22 11:58:26;;;;;;;16.17;2.95;;;;;;;;;;5035540;28;20033;-25
2022/12/22 12:01:01;;;;;;;15.15;2.78;;;;;;;;;;5035430;28;20041;-25
2022/12/22 12:03:33;;;;;;;11.55;3.65;;;;;;;;;;5034606;28;20498;-25
2022/12/22 12:06:08;;;;;;;14.10;3.83;;;;;;;;;;5035376;28;20456;-25
2022/12/22 12:08:38;;;;;;;10.38;4.13;;;;;;;;;;5034781;28;20356;-25
2022/12/22 12:11:17;;;;;;;15.77;2.88;;;;;;;;;;5035170;28;20449;-25
2022/12/22 12:13:43;;;;;;;10.95;3.15;;;;;;;;;;5035254;28;20189;-25
2022/12/22 12:16:17;;;;;;;7.90;2.78;;;;;;;;;;5035216;28;20453;-25
2022/12/22 12:18:54;;;;;;;7.78;2.42;;;;;;;;;;5035163;28;20448;-25
2022/12/22 12:21:26;;;;;;;13.70;3.20;;;;;;;;;;5035178;28;20033;-25
2022/12/22 12:23:55;;;;;;;15.05;3.50;;;;;;;;;;5035218;28;20026;-25
2022/12/22 12:26:44;;;;;;;11.98;2.60;;;;;;;;;;5035396;28;20516;-24
2022/12/22 12:29:15;;;;;;;6.22;3.30;;;;;;;;;;5035309;28;20025;-26
2022/12/22 12:31:53;;;;;;;6.60;2.78;;;;;;;;;;5035005;28;20026;-24
2022/12/22 12:34:21;;;;;;;14.75;2.42;;;;;;;;;;5035140;28;20029;-25
2022/12/22 12:36:55;;;;;;;7.15;2.38;;;;;;;;;;5034910;28;20025;-25
2022/12/22 12:39:24;;;;;;;19.73;4.97;;;;;;;;;;5035161;28;20029;-25
2022/12/22 12:41:50;;;;;;;10.23;2.58;;;;;;;;;;5034696;28;20472;-25
2022/12/22 12:44:17;;;;;;;7.30;2.60;;;;;;;;;;5034735;28;20025;-25
2022/12/22 12:46:45;;;;;;;19.73;3.03;;;;;;;;;;5050305;28;20033;-25
2022/12/22 12:49:30;;;;;;;5.65;2.55;;;;;;;;;;5050235;28;20591;-33
2022/12/22 12:51:56;;;;;;;10.32;3.15;;;;;;;;;;5035079;28;20025;-26
2022/12/22 12:54:34;;;;;;;12.65;2.60;;;;;;;;;;5035302;28;20029;-25
2022/12/22 12:57:06;;;;;;;9.32;3.03;;;;;;;;;;5050245;28;20037;-25
2022/12/22 12:59:42;;;;;;;13.55;3.15;;;;;;;;;;5034562;28;20033;-25
2022/12/22 13:02:26;;;;;;;16.35;2.78;;;;;;;;;;5034216;28;20029;-25
2022/12/22 13:05:04;;;;;;;10.55;3.78;;;;;;;;;;5034762;28;20094;-25
2022/12/22 13:07:49;;;;;;;16.48;3.83;;;;;;;;;;5034433;28;20456;-25
2022/12/22 13:10:20;;;;;;;9.45;2.40;;;;;;;;;;5035071;28;20054;-25
2022/12/22 13:12:50;;;;;;;13.53;2.60;;;;;;;;;;5034666;28;20032;-25
2022/12/22 13:15:29;;;;;;;9.90;2.85;;;;;;;;;;5050023;28;20041;-25
2022/12/22 13:17:56;;;;;;;17.85;2.60;;;;;;;;;;5034623;28;20021;-25
2022/12/22 13:20:31;;;;;;;7.68;2.92;;;;;;;;;;5035616;28;20082;-25
2022/12/22 13:22:58;;;;;;;7.85;2.63;;;;;;;;;;5038593;28;20034;-25
2022/12/22 13:25:26;;;;;;;13.25;3.08;;;;;;;;;;5038440;28;20082;-25
2022/12/22 13:27:54;;;;;;;15.75;4.05;;;;;;;;;;5038255;28;20033;-25
2022/12/22 13:30:21;;;;;;;12.77;3.45;;;;;;;;;;5038703;28;20037;-25
2022/12/22 13:32:49;;;;;;;11.07;3.63;;;;;;;;;;5038264;28;20106;-25
2022/12/22 13:35:34;;;;;;;10.50;3.45;;;;;;;;;;5038304;28;20037;-25
2022/12/22 13:38:00;;;;;;;10.73;2.80;;;;;;;;;;5038295;28;20035;-25
2022/12/22 13:40:31;;;;;;;5.90;3.05;;;;;;;;;;5038186;28;20380;-25
2022/12/22 13:43:01;;;;;;;13.13;2.80;;;;;;;;;;5037213;28;20049;-25
2022/12/22 13:45:28;;;;;;;4.90;2.40;;;;;;;;;;5038388;28;20033;-25
2022/12/22 13:47:54;;;;;;;11.80;2.42;;;;;;;;;;5038130;28;20030;-25
2022/12/22 13:50:22;;;;;;;9.73;2.80;;;;;;;;;;5038172;28;20096;-25
2022/12/22 13:52:49;;;;;;;13.48;2.78;;;;;;;;;;5053611;28;20033;-25
2022/12/22 13:55:18;;;;;;;15.27;3.58;;;;;;;;;;5038333;28;20399;-25
2022/12/22 13:57:44;;;;;;;5.72;1.90;;;;;;;;;;5037967;28;20033;-25
2022/12/22 14:00:17;;;;;;;8.30;3.10;;;;;;;;;;5038145;28;20462;-25
2022/12/22 14:02:44;;;;;;;17.40;3.83;;;;;;;;;;5037709;28;20425;-25
2022/12/22 14:05:12;;;;;;;10.18;2.92;;;;;;;;;;5037190;28;20029;-25
2022/12/22 14:07:38;;;;;;;13.95;2.47;;;;;;;;;;5053315;28;20029;-25
2022/12/22 14:10:05;;;;;;;22.42;5.53;;;;;;;;;;5037989;28;20021;-25
2022/12/22 14:12:33;;;;;;;10.52;3.40;;;;;;;;;;5053152;28;20116;-25
2022/12/22 14:15:01;;;;;;;9.45;2.35;;;;;;;;;;5037686;28;20108;-25
2022/12/22 14:17:32;;;;;;;6.85;2.83;;;;;;;;;;5037628;28;20084;-25
2022/12/22 14:19:59;;;;;;;12.60;4.18;;;;;;;;;;5037569;28;20021;-25
2022/12/22 14:22:30;;;;;;;12.27;3.83;;;;;;;;;;5053040;28;20033;-25
2022/12/22 14:24:59;;;;;;;7.85;2.22;;;;;;;;;;5052976;28;20025;-25
2022/12/22 14:27:39;;;;;;;12.38;3.85;;;;;;;;;;5053063;28;20025;-25
2022/12/22 14:30:31;;;;;;;14.98;2.88;;;;;;;;;;5037499;28;20036;-25
2022/12/22 14:33:13;;;;;;;14.63;3.42;;;;;;;;;;5034719;28;20073;-25
2022/12/22 14:35:39;;;;;;;10.73;2.72;;;;;;;;;;5037582;28;20029;-31
2022/12/22 14:38:20;;;;;;;9.38;2.70;;;;;;;;;;5037457;28;20364;-25
2022/12/22 14:40:46;;;;;;;8.30;3.10;;;;;;;;;;5037230;28;20087;-25
2022/12/22 14:43:15;;;;;;;13.48;2.47;;;;;;;;;;5037102;28;20367;-25
2022/12/22 14:45:42;;;;;;;13.15;2.80;;;;;;;;;;5037104;28;20095;-25
2022/12/22 14:48:09;;;;;;;5.30;2.50;;;;;;;;;;5037272;28;20030;-25
2022/12/22 14:50:38;;;;;;;9.63;2.75;;;;;;;;;;5037280;28;20034;-25
2022/12/22 14:53:05;;;;;;;7.10;2.70;;;;;;;;;;5052610;28;20318;-25
2022/12/22 14:55:37;;;;;;;9.85;2.63;;;;;;;;;;5036975;28;20017;-25
2022/12/22 14:58:03;;;;;;;15.48;3.55;;;;;;;;;;5036949;28;20029;-24
2022/12/22 15:00:34;;;;;;;8.70;3.28;;;;;;;;;;5037396;28;20025;-25
2022/12/22 15:03:02;;;;;;;6.13;2.95;;;;;;;;;;5036702;28;20052;-25
2022/12/22 15:05:34;;;;;;;8.30;2.50;;;;;;;;;;5036987;28;20341;-25
2022/12/22 15:08:00;;;;;;;9.98;3.00;;;;;;;;;;5036893;28;20102;-25
2022/12/22 15:10:28;;;;;;;11.18;3.03;;;;;;;;;;5036726;28;20457;-24
2022/12/22 15:12:58;;;;;;;13.40;3.25;;;;;;;;;;5036477;28;20032;-25
2022/12/22 15:15:25;;;;;;;8.60;2.42;;;;;;;;;;5036626;28;20022;-25
2022/12/22 15:17:52;;;;;;;14.50;4.13;;;;;;;;;;5036993;28;20044;-25
2022/12/22 15:20:20;;;;;;;10.55;3.08;;;;;;;;;;5036653;28;20029;-25
2022/12/22 15:22:46;;;;;;;8.77;2.10;;;;;;;;;;5036818;28;20048;-25
2022/12/22 15:25:14;;;;;;;11.65;3.20;;;;;;;;;;5036542;28;20025;-25
2022/12/22 15:27:40;;;;;;;15.85;4.68;;;;;;;;;;5036630;28;20391;-25
2022/12/22 15:30:07;;;;;;;10.52;2.90;;;;;;;;;;5036368;28;20029;-25
2022/12/22 15:32:33;;;;;;;10.73;2.65;;;;;;;;;;5035345;28;20042;-25
2022/12/22 15:35:02;;;;;;;9.73;2.88;;;;;;;;;;5036505;28;20028;-25
2022/12/22 15:37:28;;;;;;;12.88;3.85;;;;;;;;;;5036436;28;20388;-25
2022/12/22 15:39:54;;;;;;;12.50;2.78;;;;;;;;;;5036395;28;20032;-25
2022/12/22 15:42:20;;;;;;;9.30;3.38;;;;;;;;;;5036381;28;20057;-25
2022/12/22 15:44:47;;;;;;;8.63;2.40;;;;;;;;;;5035114;28;20388;-25
2022/12/22 15:47:13;;;;;;;12.95;3.80;;;;;;;;;;5036311;28;20018;-25
2022/12/22 15:49:39;;;;;;;13.70;2.85;;;;;;;;;;5036221;28;20130;-25
2022/12/22 15:52:06;;;;;;;14.05;2.50;;;;;;;;;;5036139;28;20028;-25
2022/12/22 15:54:32;;;;;;;8.55;2.47;;;;;;;;;;5036083;28;20032;-24
2022/12/22 15:56:59;;;;;;;8.38;2.30;;;;;;;;;;5036210;28;20044;-25
2022/12/22 15:59:26;;;;;;;12.48;2.70;;;;;;;;;;5036137;28;20029;-25
2022/12/22 16:01:53;;;;;;;8.20;2.67;;;;;;;;;;5036056;28;20341;-25
2022/12/22 16:04:21;;;;;;;12.45;2.42;;;;;;;;;;5035542;28;20053;-25
2022/12/22 16:06:49;;;;;;;9.80;2.10;;;;;;;;;;5051287;28;20124;-25
2022/12/22 16:09:21;;;;;;;11.50;2.65;;;;;;;;;;5036259;28;20325;-25
2022/12/22 16:11:47;;;;;;;13.50;2.88;;;;;;;;;;5035744;28;20025;-25
2022/12/22 16:14:14;;;;;;;9.40;2.35;;;;;;;;;;5035658;28;20017;-25
2022/12/22 16:16:41;;;;;;;8.35;2.70;;;;;;;;;;5035299;28;20053;-26
2022/12/22 16:19:13;;;;;;;12.90;2.67;;;;;;;;;;5051009;28;20423;-26
2022/12/22 16:21:39;;;;;;;13.05;2.97;;;;;;;;;;5035528;28;20082;-25
2022/12/22 16:24:06;;;;;;;12.07;2.80;;;;;;;;;;5035209;28;20039;-26
2022/12/22 16:26:32;;;;;;;13.27;2.33;;;;;;;;;;5035426;28;20463;-26
2022/12/22 16:28:58;;;;;;;10.13;2.63;;;;;;;;;;5035278;28;20084;-26
2022/12/22 16:31:25;;;;;;;14.55;2.67;;;;;;;;;;5050702;28;20052;-26
2022/12/22 16:33:51;;;;;;;11.45;2.42;;;;;;;;;;5035189;28;20100;-26
2022/12/22 16:36:17;;;;;;;10.13;2.78;;;;;;;;;;5034994;28;20039;-26
2022/12/22 16:38:46;;;;;;;12.23;2.72;;;;;;;;;;5035241;28;20113;-26
2022/12/22 16:41:21;;;;;;;8.77;2.92;;;;;;;;;;5035210;28;20021;-26
2022/12/22 16:43:48;;;;;;;6.38;2.53;;;;;;;;;;5034823;28;20076;-26
2022/12/22 16:46:16;;;;;;;11.40;2.47;;;;;;;;;;5034899;28;20070;-26
2022/12/22 16:48:45;;;;;;;10.30;2.92;;;;;;;;;;5035012;28;20091;-26
2022/12/22 16:51:16;;;;;;;10.43;3.97;;;;;;;;;;5034776;28;20036;-26
2022/12/22 16:53:43;;;;;;;6.68;1.80;;;;;;;;;;5050381;28;20033;-26
2022/12/22 16:56:14;;;;;;;7.65;2.45;;;;;;;;;;5034725;28;20022;-26
2022/12/22 16:58:40;;;;;;;16.70;4.32;;;;;;;;;;5034835;28;20041;-26
2022/12/22 17:01:06;;;;;;;17.23;2.97;;;;;;;;;;5034698;28;20041;-25
2022/12/22 17:03:35;;;;;;;9.25;2.15;;;;;;;;;;5034272;28;20492;-24
2022/12/22 17:06:03;;;;;;;12.20;2.70;;;;;;;;;;5034840;28;20124;-25
2022/12/22 17:08:38;;;;;;;5.97;3.08;;;;;;;;;;5034480;28;20033;-24
2022/12/22 17:11:06;;;;;;;12.00;2.30;;;;;;;;;;5034888;28;20029;-24
2022/12/22 17:13:32;;;;;;;8.85;2.80;;;;;;;;;;5034445;28;20057;-24
2022/12/22 17:16:00;;;;;;;6.72;2.17;;;;;;;;;;5034549;28;20100;-24
2022/12/22 17:18:27;;;;;;;7.22;2.53;;;;;;;;;;5034726;28;20025;-24
2022/12/22 17:20:58;;;;;;;8.48;2.05;;;;;;;;;;5034486;28;20172;-24
2022/12/22 17:23:36;;;;;;;10.60;3.35;;;;;;;;;;5033529;28;20025;-24
2022/12/22 17:26:05;;;;;;;10.60;2.13;;;;;;;;;;5034763;28;20025;-27
2022/12/22 17:28:32;;;;;;;11.77;3.15;;;;;;;;;;5050002;28;20029;-24
2022/12/22 17:30:58;;;;;;;6.68;2.33;;;;;;;;;;5034412;28;20053;-24
2022/12/22 17:33:24;;;;;;;13.15;3.17;;;;;;;;;;5034635;28;20393;-25
2022/12/22 17:35:51;;;;;;;13.90;3.10;;;;;;;;;;5034856;28;20100;-25
2022/12/22 17:38:18;;;;;;;7.45;2.65;;;;;;;;;;5034727;28;20383;-25
2022/12/22 17:40:45;;;;;;;16.88;3.78;;;;;;;;;;5034643;28;20036;-25
2022/12/22 17:43:15;;;;;;;13.35;2.63;;;;;;;;;;5034530;28;20029;-25
2022/12/22 17:45:42;;;;;;;19.38;2.40;;;;;;;;;;5034482;28;20124;-26
2022/12/22 17:48:08;;;;;;;7.35;2.45;;;;;;;;;;5034623;28;20037;-26
2022/12/22 17:50:35;;;;;;;9.13;2.45;;;;;;;;;;5034278;28;20060;-26
2022/12/22 17:53:01;;;;;;;12.13;2.30;;;;;;;;;;5034392;28;20048;-26
2022/12/22 17:55:28;;;;;;;9.48;3.05;;;;;;;;;;5034685;28;20086;-26
2022/12/22 17:57:57;;;;;;;7.03;2.17;;;;;;;;;;5034734;28;20026;-26
2022/12/22 18:00:25;;;;;;;5.60;2.53;;;;;;;;;;5034178;28;20029;-26
2022/12/22 18:02:51;;;;;;;10.75;2.85;;;;;;;;;;5033898;28;20061;-26
2022/12/22 18:05:19;;;;;;;8.98;2.58;;;;;;;;;;5034049;28;20030;-26
2022/12/22 18:07:46;;;;;;;9.30;2.53;;;;;;;;;;5035260;28;20041;-26
2022/12/22 18:10:32;;;;;;;9.57;2.25;;;;;;;;;;5037467;28;20040;-26
2022/12/22 18:12:59;;;;;;;9.30;4.05;;;;;;;;;;5037578;28;20028;-26
2022/12/22 18:15:26;;;;;;;7.93;2.42;;;;;;;;;;5037570;28;20098;-26
2022/12/22 18:17:53;;;;;;;11.43;3.00;;;;;;;;;;5037783;28;20040;-26
2022/12/22 18:20:20;;;;;;;9.00;1.90;;;;;;;;;;5037255;28;20037;-26
2022/12/22 18:22:47;;;;;;;5.70;2.10;;;;;;;;;;5037068;28;20029;-26
2022/12/22 18:25:18;;;;;;;7.32;2.20;;;;;;;;;;5037547;28;20432;-26
2022/12/22 18:27:44;;;;;;;6.85;2.22;;;;;;;;;;5037680;28;20356;-26
2022/12/22 18:30:14;;;;;;;9.63;2.88;;;;;;;;;;5037563;28;20033;-26